sensor_id;sensor_type;location;lat;lon;timestamp;P1;durP1;ratioP1;P2;durP2;ratioP2
40367;SDS011;26075;43.320;21.920;2023-12-20T00:06:32;165.20;;;103.25;;
40367;SDS011;26075;43.320;21.920;2023-12-20T00:11:36;168.35;;;100.93;;
40367;SDS011;26075;43.320;21.920;2023-12-20T00:16:38;155.60;;;97.40;;
40367;SDS011;26075;43.320;21.920;2023-12-20T00:27:01;135.80;;;86.05;;
40367;SDS011;26075;43.320;21.920;2023-12-20T00:32:02;134.32;;;83.40;;
40367;SDS011;26075;43.320;21.920;2023-12-20T00:37:04;146.90;;;91.72;;
40367;SDS011;26075;43.320;21.920;2023-12-20T00:42:06;127.75;;;81.85;;
40367;SDS011;26075;43.320;21.920;2023-12-20T00:47:07;133.93;;;80.57;;
40367;SDS011;26075;43.320;21.920;2023-12-20T00:52:18;132.15;;;82.75;;
40367;SDS011;26075;43.320;21.920;2023-12-20T00:57:19;123.32;;;77.65;;
40367;SDS011;26075;43.320;21.920;2023-12-20T01:02:33;91.43;;;56.10;;
40367;SDS011;26075;43.320;21.920;2023-12-20T01:07:34;69.70;;;42.88;;
40367;SDS011;26075;43.320;21.920;2023-12-20T01:12:36;94.43;;;56.97;;
40367;SDS011;26075;43.320;21.920;2023-12-20T01:17:37;85.82;;;54.47;;
40367;SDS011;26075;43.320;21.920;2023-12-20T01:22:40;75.13;;;49.15;;
40367;SDS011;26075;43.320;21.920;2023-12-20T01:27:42;74.57;;;47.80;;
40367;SDS011;26075;43.320;21.920;2023-12-20T01:38:22;71.78;;;45.15;;
40367;SDS011;26075;43.320;21.920;2023-12-20T01:49:11;80.25;;;47.58;;
40367;SDS011;26075;43.320;21.920;2023-12-20T01:54:12;77.35;;;48.00;;
40367;SDS011;26075;43.320;21.920;2023-12-20T01:59:13;77.93;;;46.50;;
40367;SDS011;26075;43.320;21.920;2023-12-20T02:04:14;81.18;;;48.45;;
40367;SDS011;26075;43.320;21.920;2023-12-20T02:09:16;89.00;;;53.40;;
40367;SDS011;26075;43.320;21.920;2023-12-20T02:14:17;88.28;;;56.67;;
40367;SDS011;26075;43.320;21.920;2023-12-20T02:19:18;102.93;;;65.03;;
40367;SDS011;26075;43.320;21.920;2023-12-20T02:24:21;105.05;;;62.08;;
40367;SDS011;26075;43.320;21.920;2023-12-20T02:29:22;84.65;;;50.10;;
40367;SDS011;26075;43.320;21.920;2023-12-20T02:34:31;73.65;;;45.90;;
40367;SDS011;26075;43.320;21.920;2023-12-20T02:39:32;93.13;;;54.00;;
40367;SDS011;26075;43.320;21.920;2023-12-20T02:44:35;92.38;;;55.17;;
40367;SDS011;26075;43.320;21.920;2023-12-20T02:49:36;117.85;;;66.90;;
40367;SDS011;26075;43.320;21.920;2023-12-20T02:54:37;122.70;;;75.22;;
40367;SDS011;26075;43.320;21.920;2023-12-20T02:59:38;159.80;;;94.68;;
40367;SDS011;26075;43.320;21.920;2023-12-20T03:04:39;139.90;;;87.45;;
40367;SDS011;26075;43.320;21.920;2023-12-20T03:15:35;130.80;;;81.35;;
40367;SDS011;26075;43.320;21.920;2023-12-20T03:26:02;146.90;;;88.57;;
40367;SDS011;26075;43.320;21.920;2023-12-20T03:31:16;134.68;;;84.10;;
40367;SDS011;26075;43.320;21.920;2023-12-20T03:36:17;143.77;;;83.05;;
40367;SDS011;26075;43.320;21.920;2023-12-20T03:47:01;130.48;;;77.53;;
40367;SDS011;26075;43.320;21.920;2023-12-20T03:52:02;127.35;;;75.78;;
40367;SDS011;26075;43.320;21.920;2023-12-20T03:57:03;133.20;;;79.15;;
40367;SDS011;26075;43.320;21.920;2023-12-20T04:02:05;121.47;;;75.70;;
40367;SDS011;26075;43.320;21.920;2023-12-20T04:07:18;122.43;;;78.32;;
40367;SDS011;26075;43.320;21.920;2023-12-20T04:12:36;114.88;;;67.88;;
40367;SDS011;26075;43.320;21.920;2023-12-20T04:28:06;110.40;;;66.60;;
40367;SDS011;26075;43.320;21.920;2023-12-20T04:38:42;105.40;;;64.43;;
40367;SDS011;26075;43.320;21.920;2023-12-20T05:00:29;94.95;;;56.08;;
40367;SDS011;26075;43.320;21.920;2023-12-20T05:11:31;75.95;;;46.65;;
40367;SDS011;26075;43.320;21.920;2023-12-20T05:16:34;75.15;;;48.28;;
40367;SDS011;26075;43.320;21.920;2023-12-20T05:37:34;75.25;;;43.60;;
40367;SDS011;26075;43.320;21.920;2023-12-20T05:42:47;69.70;;;42.17;;
40367;SDS011;26075;43.320;21.920;2023-12-20T05:47:49;79.60;;;47.60;;
40367;SDS011;26075;43.320;21.920;2023-12-20T05:53:01;69.78;;;42.83;;
40367;SDS011;26075;43.320;21.920;2023-12-20T05:58:03;71.00;;;43.15;;
40367;SDS011;26075;43.320;21.920;2023-12-20T06:08:10;81.63;;;47.00;;
40367;SDS011;26075;43.320;21.920;2023-12-20T06:13:11;115.80;;;69.18;;
40367;SDS011;26075;43.320;21.920;2023-12-20T06:18:13;114.57;;;71.13;;
40367;SDS011;26075;43.320;21.920;2023-12-20T06:23:15;122.78;;;69.45;;
40367;SDS011;26075;43.320;21.920;2023-12-20T06:28:16;113.20;;;72.55;;
40367;SDS011;26075;43.320;21.920;2023-12-20T06:33:17;123.95;;;77.82;;
40367;SDS011;26075;43.320;21.920;2023-12-20T06:38:19;118.07;;;75.95;;
40367;SDS011;26075;43.320;21.920;2023-12-20T06:43:20;128.82;;;77.35;;
40367;SDS011;26075;43.320;21.920;2023-12-20T06:48:23;126.28;;;77.82;;
40367;SDS011;26075;43.320;21.920;2023-12-20T06:53:24;114.93;;;70.75;;
40367;SDS011;26075;43.320;21.920;2023-12-20T06:58:25;112.43;;;68.25;;
40367;SDS011;26075;43.320;21.920;2023-12-20T07:03:26;107.32;;;67.07;;
40367;SDS011;26075;43.320;21.920;2023-12-20T07:08:27;99.93;;;64.65;;
40367;SDS011;26075;43.320;21.920;2023-12-20T07:13:28;100.03;;;63.85;;
40367;SDS011;26075;43.320;21.920;2023-12-20T07:18:29;92.22;;;61.95;;
40367;SDS011;26075;43.320;21.920;2023-12-20T07:23:30;106.68;;;68.07;;
40367;SDS011;26075;43.320;21.920;2023-12-20T07:28:31;95.75;;;65.63;;
40367;SDS011;26075;43.320;21.920;2023-12-20T07:33:33;89.78;;;60.17;;
40367;SDS011;26075;43.320;21.920;2023-12-20T07:38:34;92.80;;;57.80;;
40367;SDS011;26075;43.320;21.920;2023-12-20T07:43:36;85.10;;;56.78;;
40367;SDS011;26075;43.320;21.920;2023-12-20T07:48:37;92.40;;;56.83;;
40367;SDS011;26075;43.320;21.920;2023-12-20T07:53:39;79.57;;;54.88;;
40367;SDS011;26075;43.320;21.920;2023-12-20T07:58:40;71.60;;;50.88;;
40367;SDS011;26075;43.320;21.920;2023-12-20T08:03:42;78.68;;;53.15;;
40367;SDS011;26075;43.320;21.920;2023-12-20T08:08:43;85.70;;;55.22;;
40367;SDS011;26075;43.320;21.920;2023-12-20T08:13:45;85.25;;;58.08;;
40367;SDS011;26075;43.320;21.920;2023-12-20T08:18:46;91.40;;;60.08;;
40367;SDS011;26075;43.320;21.920;2023-12-20T08:23:47;99.40;;;65.35;;
40367;SDS011;26075;43.320;21.920;2023-12-20T08:28:50;88.28;;;61.42;;
40367;SDS011;26075;43.320;21.920;2023-12-20T08:33:51;93.35;;;58.72;;
40367;SDS011;26075;43.320;21.920;2023-12-20T08:38:53;97.28;;;62.95;;
40367;SDS011;26075;43.320;21.920;2023-12-20T08:43:55;115.80;;;71.53;;
40367;SDS011;26075;43.320;21.920;2023-12-20T08:48:56;114.30;;;69.00;;
40367;SDS011;26075;43.320;21.920;2023-12-20T08:53:57;106.63;;;68.13;;
40367;SDS011;26075;43.320;21.920;2023-12-20T08:58:58;111.93;;;70.72;;
40367;SDS011;26075;43.320;21.920;2023-12-20T09:03:59;101.75;;;68.47;;
40367;SDS011;26075;43.320;21.920;2023-12-20T09:09:00;72.35;;;51.08;;
40367;SDS011;26075;43.320;21.920;2023-12-20T09:14:01;73.97;;;47.13;;
40367;SDS011;26075;43.320;21.920;2023-12-20T09:19:03;71.80;;;49.22;;
40367;SDS011;26075;43.320;21.920;2023-12-20T09:24:04;93.45;;;60.10;;
40367;SDS011;26075;43.320;21.920;2023-12-20T09:29:05;93.82;;;65.38;;
40367;SDS011;26075;43.320;21.920;2023-12-20T09:34:07;113.57;;;73.43;;
40367;SDS011;26075;43.320;21.920;2023-12-20T09:39:08;122.00;;;79.72;;
40367;SDS011;26075;43.320;21.920;2023-12-20T09:44:12;128.80;;;84.07;;
40367;SDS011;26075;43.320;21.920;2023-12-20T09:49:14;110.03;;;75.20;;
40367;SDS011;26075;43.320;21.920;2023-12-20T09:54:15;80.50;;;55.60;;
40367;SDS011;26075;43.320;21.920;2023-12-20T09:59:17;76.00;;;52.03;;
40367;SDS011;26075;43.320;21.920;2023-12-20T10:04:18;74.93;;;47.20;;
40367;SDS011;26075;43.320;21.920;2023-12-20T10:09:20;62.72;;;43.97;;
40367;SDS011;26075;43.320;21.920;2023-12-20T10:14:21;78.03;;;49.15;;
40367;SDS011;26075;43.320;21.920;2023-12-20T10:19:23;71.95;;;50.70;;
40367;SDS011;26075;43.320;21.920;2023-12-20T10:24:24;69.88;;;49.10;;
40367;SDS011;26075;43.320;21.920;2023-12-20T10:29:25;68.47;;;46.30;;
40367;SDS011;26075;43.320;21.920;2023-12-20T10:34:26;65.82;;;46.05;;
40367;SDS011;26075;43.320;21.920;2023-12-20T10:39:27;73.55;;;45.88;;
40367;SDS011;26075;43.320;21.920;2023-12-20T10:44:30;74.68;;;51.35;;
40367;SDS011;26075;43.320;21.920;2023-12-20T10:49:31;68.70;;;47.25;;
40367;SDS011;26075;43.320;21.920;2023-12-20T10:54:33;74.32;;;49.78;;
40367;SDS011;26075;43.320;21.920;2023-12-20T10:59:35;83.93;;;52.25;;
40367;SDS011;26075;43.320;21.920;2023-12-20T11:10:03;85.97;;;55.60;;
40367;SDS011;26075;43.320;21.920;2023-12-20T11:15:08;85.80;;;57.72;;
40367;SDS011;26075;43.320;21.920;2023-12-20T11:20:10;89.90;;;62.30;;
40367;SDS011;26075;43.320;21.920;2023-12-20T11:25:11;89.68;;;61.85;;
40367;SDS011;26075;43.320;21.920;2023-12-20T11:30:13;87.68;;;55.72;;
40367;SDS011;26075;43.320;21.920;2023-12-20T11:40:16;86.32;;;55.92;;
40367;SDS011;26075;43.320;21.920;2023-12-20T11:45:19;88.68;;;57.20;;
40367;SDS011;26075;43.320;21.920;2023-12-20T11:50:22;92.88;;;62.47;;
40367;SDS011;26075;43.320;21.920;2023-12-20T11:55:23;91.82;;;64.78;;
40367;SDS011;26075;43.320;21.920;2023-12-20T12:00:24;91.50;;;67.43;;
40367;SDS011;26075;43.320;21.920;2023-12-20T12:05:26;93.78;;;65.22;;
40367;SDS011;26075;43.320;21.920;2023-12-20T12:10:27;98.30;;;63.35;;
40367;SDS011;26075;43.320;21.920;2023-12-20T12:15:29;83.05;;;58.00;;
40367;SDS011;26075;43.320;21.920;2023-12-20T12:20:30;86.57;;;56.83;;
40367;SDS011;26075;43.320;21.920;2023-12-20T12:25:31;91.65;;;60.80;;
40367;SDS011;26075;43.320;21.920;2023-12-20T12:30:33;87.50;;;57.72;;
40367;SDS011;26075;43.320;21.920;2023-12-20T12:35:34;95.93;;;62.60;;
40367;SDS011;26075;43.320;21.920;2023-12-20T12:40:35;89.65;;;60.55;;
40367;SDS011;26075;43.320;21.920;2023-12-20T12:45:36;80.10;;;58.97;;
40367;SDS011;26075;43.320;21.920;2023-12-20T12:50:37;87.72;;;61.28;;
40367;SDS011;26075;43.320;21.920;2023-12-20T12:55:38;92.03;;;59.05;;
40367;SDS011;26075;43.320;21.920;2023-12-20T13:00:39;86.03;;;59.55;;
40367;SDS011;26075;43.320;21.920;2023-12-20T13:05:42;89.47;;;59.58;;
40367;SDS011;26075;43.320;21.920;2023-12-20T13:10:43;77.95;;;58.47;;
40367;SDS011;26075;43.320;21.920;2023-12-20T13:15:44;94.13;;;61.78;;
40367;SDS011;26075;43.320;21.920;2023-12-20T13:20:52;91.50;;;62.65;;
40367;SDS011;26075;43.320;21.920;2023-12-20T13:25:56;83.13;;;60.15;;
40367;SDS011;26075;43.320;21.920;2023-12-20T13:30:57;85.13;;;55.45;;
40367;SDS011;26075;43.320;21.920;2023-12-20T13:35:58;76.50;;;56.90;;
40367;SDS011;26075;43.320;21.920;2023-12-20T13:40:59;82.68;;;54.47;;
40367;SDS011;26075;43.320;21.920;2023-12-20T13:46:00;79.93;;;51.63;;
40367;SDS011;26075;43.320;21.920;2023-12-20T13:51:02;84.22;;;48.90;;
40367;SDS011;26075;43.320;21.920;2023-12-20T13:56:03;84.22;;;51.95;;
40367;SDS011;26075;43.320;21.920;2023-12-20T14:01:04;75.95;;;52.88;;
40367;SDS011;26075;43.320;21.920;2023-12-20T14:06:05;79.97;;;54.03;;
40367;SDS011;26075;43.320;21.920;2023-12-20T14:11:06;80.68;;;53.50;;
40367;SDS011;26075;43.320;21.920;2023-12-20T14:16:07;82.80;;;53.25;;
40367;SDS011;26075;43.320;21.920;2023-12-20T14:21:10;90.10;;;55.65;;
40367;SDS011;26075;43.320;21.920;2023-12-20T14:26:12;98.82;;;64.55;;
40367;SDS011;26075;43.320;21.920;2023-12-20T14:31:14;111.03;;;71.93;;
40367;SDS011;26075;43.320;21.920;2023-12-20T14:36:19;92.00;;;60.97;;
40367;SDS011;26075;43.320;21.920;2023-12-20T14:41:20;106.77;;;71.27;;
40367;SDS011;26075;43.320;21.920;2023-12-20T14:46:24;130.70;;;83.55;;
40367;SDS011;26075;43.320;21.920;2023-12-20T14:51:25;152.63;;;89.68;;
40367;SDS011;26075;43.320;21.920;2023-12-20T14:56:26;132.65;;;85.18;;
40367;SDS011;26075;43.320;21.920;2023-12-20T15:01:28;132.60;;;81.90;;
40367;SDS011;26075;43.320;21.920;2023-12-20T15:06:29;134.82;;;83.32;;
40367;SDS011;26075;43.320;21.920;2023-12-20T15:11:31;146.90;;;91.93;;
40367;SDS011;26075;43.320;21.920;2023-12-20T15:16:32;149.43;;;91.80;;
40367;SDS011;26075;43.320;21.920;2023-12-20T15:21:34;218.13;;;133.13;;
40367;SDS011;26075;43.320;21.920;2023-12-20T15:26:40;243.10;;;156.50;;
40367;SDS011;26075;43.320;21.920;2023-12-20T15:31:43;280.90;;;179.80;;
40367;SDS011;26075;43.320;21.920;2023-12-20T15:36:45;296.08;;;195.60;;
40367;SDS011;26075;43.320;21.920;2023-12-20T15:41:58;284.08;;;192.13;;
40367;SDS011;26075;43.320;21.920;2023-12-20T15:46:59;304.20;;;207.05;;
40367;SDS011;26075;43.320;21.920;2023-12-20T15:52:18;330.25;;;214.65;;
40367;SDS011;26075;43.320;21.920;2023-12-20T16:02:51;307.48;;;203.30;;
40367;SDS011;26075;43.320;21.920;2023-12-20T16:07:53;369.42;;;237.98;;
40367;SDS011;26075;43.320;21.920;2023-12-20T16:18:36;429.13;;;281.20;;
40367;SDS011;26075;43.320;21.920;2023-12-20T16:29:03;373.30;;;242.70;;
40367;SDS011;26075;43.320;21.920;2023-12-20T16:40:08;355.08;;;229.05;;
40367;SDS011;26075;43.320;21.920;2023-12-20T16:50:48;185.75;;;121.55;;
40367;SDS011;26075;43.320;21.920;2023-12-20T17:01:28;226.50;;;142.85;;
40367;SDS011;26075;43.320;21.920;2023-12-20T17:12:07;278.98;;;179.77;;
40367;SDS011;26075;43.320;21.920;2023-12-20T17:17:10;295.40;;;195.43;;
40367;SDS011;26075;43.320;21.920;2023-12-20T17:22:11;358.23;;;235.65;;
40367;SDS011;26075;43.320;21.920;2023-12-20T17:27:13;353.98;;;230.60;;
40367;SDS011;26075;43.320;21.920;2023-12-20T17:32:14;357.65;;;240.75;;
40367;SDS011;26075;43.320;21.920;2023-12-20T17:37:15;375.60;;;248.70;;
40367;SDS011;26075;43.320;21.920;2023-12-20T17:47:54;366.40;;;238.30;;
40367;SDS011;26075;43.320;21.920;2023-12-20T17:52:55;377.13;;;246.70;;
40367;SDS011;26075;43.320;21.920;2023-12-20T17:57:59;254.90;;;169.23;;
40367;SDS011;26075;43.320;21.920;2023-12-20T18:03:00;385.15;;;258.50;;
40367;SDS011;26075;43.320;21.920;2023-12-20T18:08:02;364.50;;;247.05;;
40367;SDS011;26075;43.320;21.920;2023-12-20T18:13:03;216.55;;;142.52;;
40367;SDS011;26075;43.320;21.920;2023-12-20T18:18:04;173.10;;;117.65;;
40367;SDS011;26075;43.320;21.920;2023-12-20T18:23:08;175.13;;;114.20;;
40367;SDS011;26075;43.320;21.920;2023-12-20T18:28:09;176.10;;;116.25;;
40367;SDS011;26075;43.320;21.920;2023-12-20T18:38:49;214.65;;;136.75;;
40367;SDS011;26075;43.320;21.920;2023-12-20T18:49:13;279.00;;;174.32;;
40367;SDS011;26075;43.320;21.920;2023-12-20T18:54:14;267.52;;;167.48;;
40367;SDS011;26075;43.320;21.920;2023-12-20T18:59:16;237.48;;;155.30;;
40367;SDS011;26075;43.320;21.920;2023-12-20T19:04:19;250.20;;;152.57;;
40367;SDS011;26075;43.320;21.920;2023-12-20T19:20:37;268.85;;;178.43;;
40367;SDS011;26075;43.320;21.920;2023-12-20T19:25:38;252.75;;;162.45;;
40367;SDS011;26075;43.320;21.920;2023-12-20T19:30:40;251.10;;;162.48;;
40367;SDS011;26075;43.320;21.920;2023-12-20T19:35:41;205.60;;;136.07;;
40367;SDS011;26075;43.320;21.920;2023-12-20T19:40:42;178.82;;;116.90;;
40367;SDS011;26075;43.320;21.920;2023-12-20T19:45:45;157.13;;;103.65;;
40367;SDS011;26075;43.320;21.920;2023-12-20T19:50:47;135.95;;;88.53;;
40367;SDS011;26075;43.320;21.920;2023-12-20T19:55:51;150.77;;;100.93;;
40367;SDS011;26075;43.320;21.920;2023-12-20T20:00:55;119.80;;;81.35;;
40367;SDS011;26075;43.320;21.920;2023-12-20T20:05:56;124.82;;;85.35;;
40367;SDS011;26075;43.320;21.920;2023-12-20T20:16:54;266.35;;;175.57;;
40367;SDS011;26075;43.320;21.920;2023-12-20T20:21:56;208.55;;;138.60;;
40367;SDS011;26075;43.320;21.920;2023-12-20T20:26:57;254.20;;;170.32;;
40367;SDS011;26075;43.320;21.920;2023-12-20T20:31:59;226.27;;;150.15;;
40367;SDS011;26075;43.320;21.920;2023-12-20T20:37:00;204.85;;;138.93;;
40367;SDS011;26075;43.320;21.920;2023-12-20T20:47:41;196.18;;;130.60;;
40367;SDS011;26075;43.320;21.920;2023-12-20T20:52:42;198.48;;;133.23;;
40367;SDS011;26075;43.320;21.920;2023-12-20T20:57:46;219.88;;;139.40;;
40367;SDS011;26075;43.320;21.920;2023-12-20T21:02:49;177.20;;;119.25;;
40367;SDS011;26075;43.320;21.920;2023-12-20T21:13:15;131.07;;;83.00;;
40367;SDS011;26075;43.320;21.920;2023-12-20T21:18:17;113.13;;;75.85;;
40367;SDS011;26075;43.320;21.920;2023-12-20T21:23:18;120.60;;;79.63;;
40367;SDS011;26075;43.320;21.920;2023-12-20T21:28:19;100.20;;;67.82;;
40367;SDS011;26075;43.320;21.920;2023-12-20T21:33:20;97.70;;;66.75;;
40367;SDS011;26075;43.320;21.920;2023-12-20T21:43:47;91.35;;;63.08;;
40367;SDS011;26075;43.320;21.920;2023-12-20T21:48:48;94.05;;;64.78;;
40367;SDS011;26075;43.320;21.920;2023-12-20T21:53:49;87.78;;;60.17;;
40367;SDS011;26075;43.320;21.920;2023-12-20T21:58:50;85.97;;;60.25;;
40367;SDS011;26075;43.320;21.920;2023-12-20T22:04:10;83.50;;;60.10;;
40367;SDS011;26075;43.320;21.920;2023-12-20T22:09:11;83.93;;;61.92;;
40367;SDS011;26075;43.320;21.920;2023-12-20T22:14:12;85.38;;;61.70;;
40367;SDS011;26075;43.320;21.920;2023-12-20T22:19:13;45.10;;;30.65;;
40367;SDS011;26075;43.320;21.920;2023-12-20T22:24:19;53.22;;;40.08;;
40367;SDS011;26075;43.320;21.920;2023-12-20T22:29:21;62.78;;;44.90;;
40367;SDS011;26075;43.320;21.920;2023-12-20T22:34:25;63.20;;;46.80;;
40367;SDS011;26075;43.320;21.920;2023-12-20T22:39:26;78.07;;;58.67;;
40367;SDS011;26075;43.320;21.920;2023-12-20T22:44:27;78.88;;;59.55;;
40367;SDS011;26075;43.320;21.920;2023-12-20T22:49:29;88.60;;;62.72;;
40367;SDS011;26075;43.320;21.920;2023-12-20T22:54:30;78.68;;;57.78;;
40367;SDS011;26075;43.320;21.920;2023-12-20T23:05:28;76.22;;;54.95;;
40367;SDS011;26075;43.320;21.920;2023-12-20T23:21:47;69.90;;;49.70;;
40367;SDS011;26075;43.320;21.920;2023-12-20T23:26:50;66.68;;;45.75;;
40367;SDS011;26075;43.320;21.920;2023-12-20T23:37:29;74.43;;;51.10;;
40367;SDS011;26075;43.320;21.920;2023-12-20T23:42:31;70.47;;;49.95;;
40367;SDS011;26075;43.320;21.920;2023-12-20T23:47:32;72.97;;;52.03;;
40367;SDS011;26075;43.320;21.920;2023-12-20T23:52:33;76.75;;;53.88;;
40367;SDS011;26075;43.320;21.920;2023-12-20T23:57:34;78.80;;;56.63;;
